Time;durP1;ratioP1;P1;durP2;ratioP2;P2;SDS_P1;SDS_P2;PMS_P1;PMS_P2;Temp;Humidity;BMP_temperature;BMP_pressure;BME280_temperature;BME280_humidity;BME280_pressure;Samples;Min_cycle;Max_cycle;Signal;HPM_P1;HPM_P2
2022/10/17 00:01:30;;;;;;;4.45;1.75;;;;;;;25.93;40.77;100933.13;5032903;28;20136;-57
2022/10/17 00:03:59;;;;;;;6.65;1.73;;;;;;;25.98;40.88;100930.53;5032741;28;20026;-58
2022/10/17 00:06:27;;;;;;;7.20;2.45;;;;;;;25.93;40.60;100926.13;5015625;28;20109;-58
2022/10/17 00:08:56;;;;;;;5.28;1.40;;;;;;;25.85;41.05;100919.94;5032918;28;20156;-58
2022/10/17 00:11:25;;;;;;;6.30;1.88;;;;;;;25.85;40.98;100927.84;5033017;28;20386;-58
2022/10/17 00:13:56;;;;;;;7.60;2.00;;;;;;;25.86;41.15;100950.63;5032717;28;20064;-58
2022/10/17 00:16:29;;;;;;;3.03;1.10;;;;;;;25.79;40.88;100948.84;5032824;28;20466;-57
2022/10/17 00:18:58;;;;;;;5.13;1.67;;;;;;;25.82;41.15;100927.81;5036764;28;20036;-58
2022/10/17 00:21:27;;;;;;;6.22;1.33;;;;;;;25.80;41.12;100929.59;5036267;28;20048;-57
2022/10/17 00:23:56;;;;;;;6.28;1.60;;;;;;;25.78;41.02;100926.94;5036588;28;20033;-58
2022/10/17 00:26:24;;;;;;;4.95;1.88;;;;;;;25.80;40.96;100940.09;5018830;28;20090;-58
2022/10/17 00:28:53;;;;;;;5.07;1.40;;;;;;;25.79;40.98;100947.09;5036537;28;20029;-58
2022/10/17 00:31:22;;;;;;;4.77;1.30;;;;;;;25.78;40.77;100942.69;5036476;28;20033;-58
2022/10/17 00:33:51;;;;;;;5.10;1.50;;;;;;;25.77;40.98;100946.19;5036871;28;20053;-58
2022/10/17 00:36:22;;;;;;;5.30;1.23;;;;;;;25.75;41.12;100944.44;5018877;28;20036;-58
2022/10/17 00:38:53;;;;;;;5.93;1.75;;;;;;;25.73;41.28;100944.41;5036437;28;20029;-58
2022/10/17 00:41:23;;;;;;;4.57;1.15;;;;;;;25.73;41.10;100948.81;5036708;28;20037;-58
2022/10/17 00:43:55;;;;;;;4.05;1.45;;;;;;;25.74;41.02;100946.16;5036338;28;20446;-58
2022/10/17 00:46:25;;;;;;;5.43;1.27;;;;;;;25.77;41.34;100943.56;5036333;28;20033;-58
2022/10/17 00:48:54;;;;;;;7.10;1.67;;;;;;;25.76;41.03;100943.56;5018980;28;20033;-58
2022/10/17 00:51:34;;;;;;;5.43;1.35;;;;;;;25.74;41.10;100932.16;5036428;28;20420;-57
2022/10/17 00:54:04;;;;;;;4.20;1.50;;;;;;;25.75;40.88;100941.81;5018676;28;20032;-58
2022/10/17 00:56:33;;;;;;;4.82;1.60;;;;;;;25.71;40.83;100940.03;5036169;28;20026;-58
2022/10/17 00:59:01;;;;;;;6.05;1.67;;;;;;;25.67;41.34;100952.28;5036173;28;20100;-58
2022/10/17 01:01:30;;;;;;;5.50;1.67;;;;;;;25.64;41.14;100965.41;5036084;28;20128;-58
2022/10/17 01:03:59;;;;;;;4.47;1.17;;;;;;;25.60;41.35;100963.59;5018116;28;20036;-58
2022/10/17 01:06:27;;;;;;;6.85;1.67;;;;;;;25.61;41.38;100957.50;5035869;28;20032;-58
2022/10/17 01:08:56;;;;;;;4.88;1.65;;;;;;;25.59;41.55;100947.00;5035865;28;20026;-58
2022/10/17 01:11:33;;;;;;;5.63;1.52;;;;;;;25.51;41.65;100953.94;5035924;28;20022;-58
2022/10/17 01:14:09;;;;;;;6.10;1.77;;;;;;;25.56;41.36;100954.84;5018488;28;20049;-57
2022/10/17 01:16:56;;;;;;;5.00;1.70;;;;;;;25.58;41.50;100950.47;5034751;28;20442;-57
2022/10/17 01:19:25;;;;;;;6.80;1.80;;;;;;;25.60;41.36;100958.34;5032052;28;20044;-58
2022/10/17 01:21:58;;;;;;;3.85;1.10;;;;;;;25.58;41.47;100947.84;5035501;28;20033;-58
2022/10/17 01:24:37;;;;;;;5.45;1.60;;;;;;;25.53;41.75;100951.31;5035940;28;20121;-58
2022/10/17 01:27:20;;;;;;;5.10;1.98;;;;;;;25.45;41.85;100956.53;5035389;28;20111;-58
2022/10/17 01:30:07;;;;;;;5.93;1.60;;;;;;;25.54;41.41;100987.22;5017389;28;20061;-58
2022/10/17 01:32:57;;;;;;;3.80;1.20;;;;;;;25.55;41.42;100997.75;5031500;28;20096;-58
2022/10/17 01:35:27;;;;;;;6.80;2.00;;;;;;;25.56;41.36;101004.75;5012200;28;20030;-58
2022/10/17 01:38:05;;;;;;;3.90;1.60;;;;;;;25.56;41.26;101011.78;5034134;28;20061;-57
2022/10/17 01:40:40;;;;;;;6.57;1.60;;;;;;;25.53;41.67;101015.22;5034156;28;20467;-56
2022/10/17 01:43:16;;;;;;;6.25;1.88;;;;;;;25.54;41.50;101022.25;5035227;28;20579;-58
2022/10/17 01:45:59;;;;;;;4.03;1.90;;;;;;;25.52;41.29;101023.97;5017773;28;20037;-58
2022/10/17 01:48:33;;;;;;;6.10;1.83;;;;;;;25.54;41.33;101011.75;5017965;28;20029;-57
2022/10/17 01:51:07;;;;;;;7.10;1.92;;;;;;;25.58;41.35;101017.88;5034130;28;20025;-58
2022/10/17 01:53:39;;;;;;;3.53;1.20;;;;;;;25.55;41.43;101012.63;5017585;28;20029;-58
2022/10/17 01:56:09;;;;;;;4.82;1.15;;;;;;;25.55;41.52;101013.50;5034849;28;20033;-58
2022/10/17 01:58:53;;;;;;;4.07;1.17;;;;;;;25.47;41.58;101008.19;5035106;28;20043;-58
2022/10/17 02:01:22;;;;;;;5.03;1.30;;;;;;;25.47;41.73;101010.81;5017346;28;20029;-58
2022/10/17 02:03:52;;;;;;;6.88;1.58;;;;;;;25.45;41.83;101009.06;5017332;28;20036;-58
2022/10/17 02:06:20;;;;;;;4.07;1.20;;;;;;;25.41;41.94;101015.13;5034743;28;20033;-57
2022/10/17 02:08:50;;;;;;;4.57;1.33;;;;;;;25.36;42.06;101017.72;5034650;28;20111;-58
2022/10/17 02:11:21;;;;;;;4.57;1.33;;;;;;;25.33;41.81;100997.53;5035233;28;20113;-58
2022/10/17 02:14:26;;;;;;;4.75;1.40;;;;;;;25.37;41.98;101002.81;5034831;28;20037;-58
2022/10/17 02:17:22;;;;;;;5.20;1.33;;;;;;;25.38;41.68;101002.84;5034482;28;20033;-58
2022/10/17 02:20:15;;;;;;;5.78;1.55;;;;;;;25.42;41.78;100999.38;5027948;28;20103;-58
2022/10/17 02:22:48;;;;;;;5.07;1.40;;;;;;;25.39;41.80;101001.97;5034500;28;20025;-58
2022/10/17 02:25:35;;;;;;;3.97;1.50;;;;;;;25.30;42.28;100994.03;5016770;28;20506;-58
2022/10/17 02:28:10;;;;;;;7.75;2.28;;;;;;;25.29;42.21;100994.88;5016914;28;20079;-58
2022/10/17 02:30:48;;;;;;;6.15;1.65;;;;;;;25.22;41.99;100991.34;5034476;28;20025;-58
2022/10/17 02:33:23;;;;;;;5.13;1.30;;;;;;;25.26;42.02;100994.84;5033231;28;20025;-58
2022/10/17 02:35:52;;;;;;;;;;;;;;;25.25;42.14;100988.75;5017336;28;20459;-58
2022/10/17 02:38:21;;;;;;;6.97;1.63;;;;;;;25.31;41.77;100987.91;5016600;28;19909;-58
2022/10/17 02:40:51;;;;;;;4.88;1.40;;;;;;;25.24;42.45;100989.59;5016711;28;20029;-58
2022/10/17 02:43:21;;;;;;;5.78;1.85;;;;;;;25.27;42.20;100994.00;5032948;28;20029;-58
2022/10/17 02:45:48;;;;;;;6.20;1.65;;;;;;;25.28;42.02;100999.28;5034198;28;20034;-58
2022/10/17 02:48:39;;;;;;;5.43;1.63;;;;;;;25.27;41.91;101002.75;4983840;28;20387;-58
2022/10/17 02:51:20;;;;;;;6.82;1.58;;;;;;;25.29;42.14;101002.75;5033878;28;20111;-56
2022/10/17 02:54:26;;;;;;;4.60;1.50;;;;;;;25.30;42.17;101000.16;5033892;28;20128;-58
2022/10/17 02:57:10;;;;;;;5.68;1.58;;;;;;;25.34;41.99;101006.31;5027938;28;20065;-58
2022/10/17 02:59:40;;;;;;;5.38;1.40;;;;;;;25.38;41.70;101009.84;5032761;28;20028;-57
2022/10/17 03:02:09;;;;;;;4.38;1.30;;;;;;;25.37;42.02;101002.81;5033687;28;20403;-58
2022/10/17 03:04:38;;;;;;;6.00;1.48;;;;;;;25.31;41.99;101009.81;5033698;28;20479;-56
2022/10/17 03:07:07;;;;;;;6.53;1.77;;;;;;;25.38;42.05;101018.59;5032414;28;20030;-58
2022/10/17 03:09:35;;;;;;;5.75;1.13;;;;;;;25.40;41.65;101018.59;5033762;28;20036;-58
2022/10/17 03:12:04;;;;;;;3.60;1.40;;;;;;;25.43;41.71;101008.16;5033606;28;20490;-56
2022/10/17 03:14:32;;;;;;;4.70;1.67;;;;;;;25.40;41.85;101023.84;5016270;28;20040;-58
2022/10/17 03:17:01;;;;;;;3.75;1.13;;;;;;;25.41;41.55;101044.88;5033559;28;20025;-58
2022/10/17 03:19:29;;;;;;;4.50;1.73;;;;;;;25.44;41.75;101038.81;5033151;28;20077;-58
2022/10/17 03:21:57;;;;;;;7.10;1.50;;;;;;;25.44;41.42;101033.56;5033403;28;20104;-58
2022/10/17 03:24:26;;;;;;;4.57;1.17;;;;;;;25.40;41.41;101029.97;5033512;28;20025;-58
2022/10/17 03:26:53;;;;;;;5.18;1.40;;;;;;;25.43;41.74;101034.44;5033562;28;20478;-58
2022/10/17 03:29:22;;;;;;;5.05;1.20;;;;;;;25.45;41.42;101046.69;5033422;28;20105;-58
2022/10/17 03:31:51;;;;;;;4.43;1.35;;;;;;;25.44;41.52;101047.56;5033151;28;20033;-58
2022/10/17 03:34:20;;;;;;;6.10;1.55;;;;;;;25.47;41.44;101059.84;5033285;28;20021;-58
2022/10/17 03:36:48;;;;;;;6.78;1.63;;;;;;;25.44;41.58;101060.69;5033197;28;20082;-58
2022/10/17 03:39:17;;;;;;;5.63;1.60;;;;;;;25.46;41.61;101063.34;5033388;28;20029;-57
2022/10/17 03:41:46;;;;;;;3.53;1.27;;;;;;;25.42;41.49;101057.16;5015640;28;20068;-57
2022/10/17 03:44:14;;;;;;;5.50;1.35;;;;;;;25.42;41.74;101054.53;5032835;28;20538;-56
2022/10/17 03:46:43;;;;;;;4.65;1.20;;;;;;;25.45;41.31;101046.69;5033313;28;20028;-57
2022/10/17 03:49:11;;;;;;;5.30;1.48;;;;;;;25.52;41.29;101052.00;5033072;28;20148;-57
2022/10/17 03:51:40;;;;;;;3.08;1.30;;;;;;;25.52;41.17;101065.13;5032355;28;20398;-56
2022/10/17 03:54:08;;;;;;;5.03;1.33;;;;;;;25.55;41.33;101055.53;5033077;28;20074;-58
2022/10/17 03:56:37;;;;;;;3.92;1.42;;;;;;;25.47;41.50;101065.09;5015420;28;20026;-57
2022/10/17 03:59:05;;;;;;;4.22;1.40;;;;;;;25.39;41.42;101074.63;5032898;28;20037;-57
2022/10/17 04:01:34;;;;;;;5.70;1.67;;;;;;;25.36;41.44;101082.47;5033108;28;20033;-58
2022/10/17 04:04:02;;;;;;;3.05;1.10;;;;;;;25.36;41.77;101085.09;5032906;28;20032;-58
2022/10/17 04:06:31;;;;;;;4.07;1.75;;;;;;;25.29;41.67;101082.44;5033005;28;20033;-56
2022/10/17 04:09:00;;;;;;;4.78;1.48;;;;;;;25.24;41.92;101084.13;5032756;28;20025;-58
2022/10/17 04:11:29;;;;;;;3.30;0.90;;;;;;;25.28;41.97;101082.41;5032558;28;20032;-58
2022/10/17 04:13:58;;;;;;;5.18;1.63;;;;;;;25.15;41.94;101070.91;5032867;28;20113;-58
2022/10/17 04:16:27;;;;;;;4.45;1.13;;;;;;;25.28;41.59;101096.41;5032715;28;20029;-57
2022/10/17 04:18:58;;;;;;;3.75;1.38;;;;;;;25.29;41.80;101097.28;5032684;28;20544;-58
2022/10/17 04:21:28;;;;;;;4.50;1.30;;;;;;;25.22;41.83;101108.59;5032416;28;20057;-57
2022/10/17 04:23:57;;;;;;;3.35;1.08;;;;;;;25.20;41.78;101112.97;5032731;28;20026;-58
2022/10/17 04:26:26;;;;;;;3.92;1.02;;;;;;;25.16;42.20;101104.16;5032814;28;20034;-58
2022/10/17 04:28:55;;;;;;;3.47;0.95;;;;;;;25.13;42.16;101093.66;5032788;28;20025;-57
2022/10/17 04:31:23;;;;;;;2.75;0.93;;;;;;;25.12;41.74;101107.63;5032815;28;20028;-58
2022/10/17 04:33:52;;;;;;;3.47;1.15;;;;;;;25.13;42.10;101112.03;5032644;28;20483;-58
2022/10/17 04:36:22;;;;;;;3.42;0.90;;;;;;;25.15;41.94;101118.19;5032642;28;20073;-57
2022/10/17 04:38:51;;;;;;;4.10;1.33;;;;;;;25.16;42.17;101138.28;5032698;28;20113;-58
2022/10/17 04:41:20;;;;;;;3.40;1.00;;;;;;;25.17;41.95;101134.78;5032707;28;20052;-50
2022/10/17 04:43:47;;;;;;;2.58;0.90;;;;;;;25.16;41.69;101131.31;5015197;28;20112;-57
2022/10/17 04:46:16;;;;;;;2.53;1.25;;;;;;;25.16;41.82;101136.56;5032415;28;20036;-57
2022/10/17 04:48:44;;;;;;;4.57;1.10;;;;;;;25.15;42.01;101129.53;5032485;28;20052;-58
2022/10/17 04:51:15;;;;;;;3.35;1.08;;;;;;;25.10;42.09;101130.34;5032633;28;20091;-56
2022/10/17 04:53:44;;;;;;;3.45;0.90;;;;;;;25.13;42.17;101151.41;5032291;28;20498;-55
2022/10/17 04:56:15;;;;;;;4.50;1.05;;;;;;;25.12;41.97;101160.13;5032462;28;20028;-57
2022/10/17 04:58:44;;;;;;;6.38;1.25;;;;;;;25.14;41.74;101169.78;5032698;28;20025;-56
2022/10/17 05:01:15;;;;;;;4.82;1.63;;;;;;;25.13;41.95;101180.28;5032305;28;20029;-55
2022/10/17 05:03:44;;;;;;;3.17;0.85;;;;;;;25.17;41.75;101193.44;5032906;28;20035;-56
2022/10/17 05:06:18;;;;;;;3.55;1.10;;;;;;;25.10;42.00;101188.97;5034589;28;20092;-55
2022/10/17 05:08:45;;;;;;;3.63;1.13;;;;;;;25.16;41.72;101196.03;5035842;28;20072;-52
2022/10/17 05:11:22;;;;;;;2.85;0.98;;;;;;;25.21;41.54;101210.09;5035971;28;20487;-56
2022/10/17 05:13:56;;;;;;;2.60;0.80;;;;;;;25.21;41.86;101212.72;5035678;28;20029;-57
2022/10/17 05:16:25;;;;;;;4.97;1.13;;;;;;;25.18;41.52;101210.06;5035668;28;20479;-57
2022/10/17 05:18:55;;;;;;;2.20;0.60;;;;;;;25.23;41.56;101213.63;5018453;28;20391;-58
2022/10/17 05:21:25;;;;;;;2.97;0.90;;;;;;;25.21;41.68;101227.63;5035432;28;20045;-55
2022/10/17 05:23:54;;;;;;;3.70;0.90;;;;;;;25.22;41.53;101219.75;5035497;28;20083;-58
2022/10/17 05:26:22;;;;;;;2.55;0.90;;;;;;;25.27;41.65;101227.66;5035604;28;20100;-57
2022/10/17 05:28:51;;;;;;;2.85;0.93;;;;;;;25.22;41.64;101227.63;5035686;28;20032;-58
2022/10/17 05:31:19;;;;;;;2.50;0.82;;;;;;;25.22;41.77;101232.88;5035832;28;20430;-58
2022/10/17 05:33:48;;;;;;;2.80;0.80;;;;;;;25.27;41.90;101251.31;5035360;28;20376;-57
2022/10/17 05:36:16;;;;;;;2.63;0.85;;;;;;;25.27;41.76;101243.44;5035369;28;20032;-57
2022/10/17 05:38:48;;;;;;;4.18;1.00;;;;;;;25.36;41.78;101242.66;5035463;28;20017;-54
2022/10/17 05:41:17;;;;;;;5.57;1.00;;;;;;;25.20;41.70;101233.72;5017750;28;20064;-57
2022/10/17 05:43:45;;;;;;;2.22;0.73;;;;;;;25.30;41.78;101252.25;5035378;28;20025;-56
2022/10/17 05:46:14;;;;;;;4.88;1.58;;;;;;;25.28;41.63;101248.72;5035072;28;20037;-57
2022/10/17 05:48:42;;;;;;;2.70;0.65;;;;;;;25.32;41.76;101254.88;5035337;28;20030;-55
2022/10/17 05:51:11;;;;;;;4.45;0.95;;;;;;;25.46;41.37;101252.44;5035445;28;20030;-57
2022/10/17 05:53:41;;;;;;;4.15;1.00;;;;;;;25.38;41.55;101257.59;5034892;28;20040;-57
2022/10/17 05:56:11;;;;;;;2.75;0.70;;;;;;;25.37;41.83;101244.41;5035240;28;20036;-57
2022/10/17 05:58:42;;;;;;;3.78;1.25;;;;;;;25.36;41.70;101245.28;5035248;28;20029;-58
2022/10/17 06:01:11;;;;;;;2.08;0.82;;;;;;;25.29;41.80;101242.59;5033700;28;20121;-58
2022/10/17 06:03:40;;;;;;;3.33;0.93;;;;;;;25.31;41.61;101251.38;5017099;28;20032;-58
2022/10/17 06:06:11;;;;;;;3.20;0.90;;;;;;;25.29;41.96;101257.47;5034705;28;20029;-57
2022/10/17 06:08:39;;;;;;;3.65;0.98;;;;;;;25.33;41.41;101252.25;5034944;28;20112;-54
2022/10/17 06:11:08;;;;;;;3.33;0.68;;;;;;;25.37;41.85;101257.53;5034657;28;20030;-58
2022/10/17 06:13:37;;;;;;;8.57;0.80;;;;;;;25.36;41.88;101282.03;5034908;28;20501;-58
2022/10/17 06:16:05;;;;;;;6.63;1.23;;;;;;;25.33;41.84;101289.00;5034081;28;20075;-57
2022/10/17 06:18:34;;;;;;;5.00;0.80;;;;;;;25.36;41.75;101292.56;5034632;28;20025;-57
2022/10/17 06:21:05;;;;;;;2.40;0.82;;;;;;;25.37;41.91;101299.56;5013461;28;20078;-58
2022/10/17 06:23:34;;;;;;;2.35;0.70;;;;;;;25.36;41.70;101290.81;5013477;28;20030;-58
2022/10/17 06:26:04;;;;;;;4.40;1.00;;;;;;;25.34;41.84;101280.28;5014630;28;20030;-57
2022/10/17 06:28:32;;;;;;;2.80;0.90;;;;;;;25.40;41.84;101303.09;5014834;28;20060;-58
2022/10/17 06:31:10;;;;;;;3.28;0.52;;;;;;;25.41;41.95;101311.88;5014671;28;20025;-59
2022/10/17 06:33:39;;;;;;;2.83;0.65;;;;;;;25.42;41.51;101309.28;5014701;28;20116;-58
2022/10/17 06:36:10;;;;;;;4.28;0.77;;;;;;;25.40;41.65;101302.25;5014576;28;20058;-57
2022/10/17 06:38:38;;;;;;;2.30;0.60;;;;;;;25.40;41.73;101308.34;5013223;28;20587;-57
2022/10/17 06:41:08;;;;;;;5.93;0.80;;;;;;;25.40;41.44;101318.84;5014532;28;20022;-56
2022/10/17 06:43:42;;;;;;;2.33;0.65;;;;;;;25.42;41.78;101319.78;5014356;28;20112;-58
2022/10/17 06:46:11;;;;;;;4.15;0.77;;;;;;;25.44;41.56;101323.31;5014376;28;20079;-58
2022/10/17 06:48:39;;;;;;;3.60;1.00;;;;;;;25.33;41.73;101310.03;5014655;28;20357;-58
2022/10/17 06:51:10;;;;;;;6.63;1.55;;;;;;;25.52;41.69;101338.31;5014647;28;20025;-57
2022/10/17 06:53:39;;;;;;;2.28;0.60;;;;;;;25.48;41.50;101343.53;5014414;28;20034;-57
2022/10/17 06:56:09;;;;;;;3.95;0.70;;;;;;;25.46;41.76;101339.13;5014230;28;20109;-57
2022/10/17 06:58:40;;;;;;;3.72;0.65;;;;;;;25.58;41.29;101338.38;5014072;28;20075;-57
2022/10/17 07:01:12;;;;;;;2.58;0.50;;;;;;;25.56;41.41;101341.00;5014212;28;20030;-57
2022/10/17 07:03:42;;;;;;;2.72;0.60;;;;;;;25.57;41.64;101352.38;5013885;28;20476;-57
2022/10/17 07:06:11;;;;;;;4.32;0.90;;;;;;;25.48;41.88;101368.94;5014109;28;20048;-57
2022/10/17 07:08:43;;;;;;;5.97;0.82;;;;;;;25.47;41.75;101385.53;5013915;28;20061;-57
2022/10/17 07:11:14;;;;;;;2.47;0.60;;;;;;;25.47;41.61;101378.53;5014352;28;20041;-57
2022/10/17 07:13:42;;;;;;;2.20;0.65;;;;;;;25.46;41.76;101384.66;5013880;28;20507;-56
2022/10/17 07:16:12;;;;;;;1.20;0.57;;;;;;;25.44;41.88;101399.50;5013805;28;20033;-54
2022/10/17 07:18:41;;;;;;;2.20;0.77;;;;;;;25.42;41.85;101410.84;5013705;28;20482;-58
2022/10/17 07:21:08;;;;;;;7.03;0.88;;;;;;;25.40;42.01;101407.28;5029597;28;20111;-49
2022/10/17 07:23:38;;;;;;;2.30;0.55;;;;;;;25.41;41.97;101419.56;5033443;28;20029;-57
2022/10/17 07:26:08;;;;;;;3.08;0.63;;;;;;;25.42;41.96;101426.63;5032978;28;20041;-58
2022/10/17 07:28:38;;;;;;;1.20;0.40;;;;;;;25.43;41.92;101428.38;5033097;28;20116;-57
2022/10/17 07:31:09;;;;;;;2.10;0.50;;;;;;;25.40;41.97;101437.03;5016179;28;20029;-57
2022/10/17 07:33:37;;;;;;;2.00;0.50;;;;;;;25.39;41.80;101437.03;5033170;28;20025;-56
2022/10/17 07:36:07;;;;;;;2.45;0.75;;;;;;;25.39;41.98;101443.19;5033339;28;20026;-58
2022/10/17 07:38:36;;;;;;;6.13;1.27;;;;;;;25.41;41.74;101444.06;5015561;28;20033;-57
2022/10/17 07:41:07;;;;;;;2.25;0.47;;;;;;;25.37;42.09;101444.00;5033265;28;20087;-58
2022/10/17 07:43:35;;;;;;;2.60;0.55;;;;;;;25.38;41.70;101454.56;5032966;28;20033;-57
2022/10/17 07:46:05;;;;;;;2.35;0.90;;;;;;;25.41;42.02;101451.94;5033035;28;20029;-58
2022/10/17 07:48:33;;;;;;;1.08;0.45;;;;;;;25.45;41.80;101445.06;5033036;28;20025;-58
2022/10/17 07:51:06;;;;;;;2.03;0.45;;;;;;;25.44;41.74;101459.91;5033234;28;20383;-58
2022/10/17 07:53:39;;;;;;;0.68;0.30;;;;;;;25.41;41.83;101474.72;5033336;28;20034;-56
2022/10/17 07:56:08;;;;;;;1.95;0.52;;;;;;;25.39;41.85;101474.72;5015610;28;20453;-58
2022/10/17 07:58:37;;;;;;;2.25;0.38;;;;;;;25.42;41.95;101476.53;5032920;28;20039;-58
2022/10/17 08:01:07;;;;;;;5.68;0.43;;;;;;;25.42;42.01;101473.88;5033045;28;20479;-58
2022/10/17 08:03:35;;;;;;;1.40;0.40;;;;;;;25.43;41.92;101465.16;5033219;28;20037;-58
2022/10/17 08:06:03;;;;;;;1.08;0.30;;;;;;;25.42;41.90;101476.53;5032744;28;20105;-58
2022/10/17 08:08:32;;;;;;;1.67;0.40;;;;;;;25.41;41.99;101498.34;5032941;28;20048;-58
2022/10/17 08:11:05;;;;;;;1.00;0.40;;;;;;;25.40;42.17;101496.59;5032865;28;20017;-57
2022/10/17 08:13:32;;;;;;;1.30;0.50;;;;;;;25.42;41.83;101494.91;5032607;28;20116;-58
2022/10/17 08:16:07;;;;;;;0.98;0.43;;;;;;;25.41;41.80;101499.22;5032811;28;20053;-58
2022/10/17 08:18:36;;;;;;;2.63;0.30;;;;;;;25.43;42.10;101502.78;5033110;28;20049;-58
2022/10/17 08:21:07;;;;;;;1.13;0.47;;;;;;;25.44;41.63;101509.81;5032427;28;20507;-58
2022/10/17 08:23:36;;;;;;;2.83;0.40;;;;;;;25.42;41.91;101516.78;5032684;28;20029;-58
2022/10/17 08:26:09;;;;;;;0.93;0.40;;;;;;;25.46;42.13;101520.38;5032519;28;20033;-57
2022/10/17 08:28:38;;;;;;;1.55;0.25;;;;;;;25.43;41.96;101512.44;5032753;28;20029;-57
2022/10/17 08:31:10;;;;;;;1.13;0.57;;;;;;;25.45;42.04;101523.84;5031803;28;20149;-58
2022/10/17 08:33:39;;;;;;;1.38;0.35;;;;;;;25.38;41.72;101524.56;5032671;28;20030;-58
2022/10/17 08:36:07;;;;;;;0.77;0.30;;;;;;;25.50;41.95;101537.03;5032333;28;20068;-58
2022/10/17 08:38:38;;;;;;;0.60;0.28;;;;;;;25.49;41.88;101541.41;5034653;28;20029;-58
2022/10/17 08:41:21;;;;;;;0.80;0.38;;;;;;;25.48;42.06;101543.16;5036506;28;20029;-58
2022/10/17 08:43:58;;;;;;;0.65;0.30;;;;;;;25.47;41.99;101532.63;5036419;28;20029;-58
2022/10/17 08:46:32;;;;;;;3.00;0.57;;;;;;;25.50;42.02;101535.28;5036096;28;20037;-58
2022/10/17 08:49:02;;;;;;;2.03;0.40;;;;;;;25.49;41.87;101549.28;5018953;28;20059;-59
2022/10/17 08:51:34;;;;;;;0.85;0.30;;;;;;;25.57;41.51;101559.91;5018837;28;20026;-57
2022/10/17 08:54:16;;;;;;;1.40;0.73;;;;;;;25.50;41.91;101558.06;5036526;28;20100;-58
2022/10/17 08:56:46;;;;;;;0.68;0.30;;;;;;;25.48;42.03;101558.91;5034895;28;20082;-57
2022/10/17 08:59:18;;;;;;;1.02;0.40;;;;;;;25.50;41.83;101568.56;5035915;28;20360;-54
2022/10/17 09:02:25;;;;;;;0.43;0.30;;;;;;;25.50;41.66;101577.31;5036585;28;20030;-58
2022/10/17 09:05:23;;;;;;;3.05;0.57;;;;;;;25.52;41.81;101585.25;5026697;28;20120;-58
2022/10/17 09:08:30;;;;;;;0.75;0.32;;;;;;;25.53;41.44;101566.00;5028930;28;20410;-57
2022/10/17 09:11:03;;;;;;;0.95;0.30;;;;;;;25.54;41.59;101570.41;5026947;28;20387;-57
2022/10/17 09:13:49;;;;;;;0.52;0.30;;;;;;;25.57;41.68;101566.06;5034612;28;20059;-58
2022/10/17 09:16:37;;;;;;;2.25;0.60;;;;;;;25.62;41.41;101579.25;5032583;28;20033;-58
2022/10/17 09:19:30;;;;;;;0.95;0.40;;;;;;;25.61;41.31;101581.03;5033769;28;20036;-58
2022/10/17 09:22:04;;;;;;;1.88;0.50;;;;;;;25.66;41.48;101580.19;5029983;28;20061;-58
2022/10/17 09:24:54;;;;;;;0.67;0.37;;;;;;;25.62;41.34;101588.06;5035535;28;20034;-57
2022/10/17 09:27:25;;;;;;;2.45;0.93;;;;;;;25.68;41.46;101588.97;5035725;28;20037;-52
2022/10/17 09:30:01;;;;;;;0.95;0.40;;;;;;;25.68;41.53;101588.97;5035715;28;20029;-54
2022/10/17 09:32:30;;;;;;;0.88;0.40;;;;;;;25.63;41.59;101576.69;5018083;28;20032;-57
2022/10/17 09:34:59;;;;;;;1.33;0.40;;;;;;;25.66;41.41;101570.59;5035466;28;20025;-57
2022/10/17 09:37:33;;;;;;;0.95;0.30;;;;;;;25.66;41.39;101567.94;5035461;28;20053;-57
2022/10/17 09:40:02;;;;;;;2.33;0.40;;;;;;;25.69;41.47;101569.72;5017960;28;20040;-57
2022/10/17 09:42:31;;;;;;;1.30;0.40;;;;;;;25.72;41.31;101593.44;5034997;28;20049;-57
2022/10/17 09:45:24;;;;;;;1.23;0.40;;;;;;;25.76;41.18;101605.78;5034350;28;20026;-57
2022/10/17 09:48:17;;;;;;;2.55;0.57;;;;;;;25.74;41.09;101599.59;5033248;28;20044;-58
2022/10/17 09:50:46;;;;;;;1.38;0.50;;;;;;;25.78;41.03;101606.69;5034659;28;20048;-57
2022/10/17 09:53:27;;;;;;;1.70;0.40;;;;;;;25.76;40.99;101609.28;5035010;28;20034;-56
2022/10/17 09:55:58;;;;;;;0.80;0.30;;;;;;;25.75;40.98;101609.25;5034865;28;20029;-58
2022/10/17 09:58:41;;;;;;;1.65;0.45;;;;;;;25.65;41.07;101604.72;5017591;28;20029;-57
2022/10/17 10:01:29;;;;;;;1.33;0.55;;;;;;;25.75;41.30;101617.13;5034790;28;20104;-58
2022/10/17 10:04:17;;;;;;;1.15;0.40;;;;;;;25.75;41.29;101625.03;5035014;28;20044;-57
2022/10/17 10:07:05;;;;;;;2.13;0.60;;;;;;;25.76;41.22;101630.28;5034760;28;20037;-58
2022/10/17 10:09:35;;;;;;;1.30;0.55;;;;;;;25.79;41.40;101632.09;5016846;28;20088;-57
2022/10/17 10:12:14;;;;;;;1.58;0.47;;;;;;;25.78;41.39;101625.06;5035029;28;20022;-58
2022/10/17 10:14:43;;;;;;;2.33;0.50;;;;;;;25.80;41.12;101633.88;5033637;28;20025;-57
2022/10/17 10:17:30;;;;;;;1.17;0.40;;;;;;;25.79;41.24;101632.09;5034671;28;20072;-56
2022/10/17 10:19:59;;;;;;;2.05;0.40;;;;;;;25.82;40.96;101642.63;5030994;28;20045;-57
2022/10/17 10:22:27;;;;;;;0.88;0.40;;;;;;;25.81;41.26;101646.16;5034375;28;20085;-58
2022/10/17 10:25:15;;;;;;;1.85;0.47;;;;;;;25.79;41.13;101634.72;5034519;28;20034;-57
2022/10/17 10:27:45;;;;;;;4.90;1.05;;;;;;;25.79;41.07;101643.50;5034268;28;20060;-56
2022/10/17 10:30:32;;;;;;;2.47;0.60;;;;;;;25.82;41.36;101654.91;5034744;28;20021;-58
2022/10/17 10:33:01;;;;;;;2.03;0.60;;;;;;;25.85;41.25;101665.47;5025934;28;20449;-57
2022/10/17 10:35:34;;;;;;;1.67;0.40;;;;;;;25.82;41.10;101654.91;5034379;28;20021;-55
2022/10/17 10:38:04;;;;;;;2.78;0.65;;;;;;;25.84;41.38;101669.84;5034537;28;20471;-56
2022/10/17 10:40:36;;;;;;;4.22;0.95;;;;;;;25.83;41.30;101677.72;5016963;28;20098;-58
2022/10/17 10:43:06;;;;;;;4.38;0.90;;;;;;;25.86;41.11;101681.25;5034028;28;20025;-58
2022/10/17 10:45:39;;;;;;;7.18;1.20;;;;;;;25.88;41.30;101676.91;5034097;28;20090;-58
2022/10/17 10:48:21;;;;;;;8.65;1.73;;;;;;;25.88;41.49;101670.78;5034236;28;20021;-58
2022/10/17 10:51:10;;;;;;;4.82;1.00;;;;;;;25.87;41.60;101675.16;5034329;28;20021;-58
2022/10/17 10:53:47;;;;;;;6.78;1.50;;;;;;;25.85;41.50;101679.50;5030512;28;20569;-56
2022/10/17 10:56:35;;;;;;;5.65;1.70;;;;;;;25.83;41.65;101682.97;5032693;28;20039;-57
2022/10/17 10:59:25;;;;;;;6.10;1.40;;;;;;;25.86;41.50;101689.16;5033665;28;20116;-56
2022/10/17 11:02:15;;;;;;;9.48;1.55;;;;;;;25.89;41.62;101694.47;5015163;28;20112;-45
2022/10/17 11:04:58;;;;;;;5.20;1.20;;;;;;;25.90;41.17;101700.59;5033760;28;20033;-57
2022/10/17 11:07:47;;;;;;;4.47;1.42;;;;;;;25.92;41.49;101709.38;5033606;28;20057;-57
2022/10/17 11:10:46;;;;;;;4.50;1.42;;;;;;;25.91;41.47;101708.53;5015913;28;20091;-57
2022/10/17 11:13:27;;;;;;;3.88;1.10;;;;;;;25.92;41.29;101704.13;5016184;28;20116;-56
2022/10/17 11:16:18;;;;;;;3.45;1.05;;;;;;;25.91;41.34;101708.53;5032305;28;20087;-57
2022/10/17 11:18:51;;;;;;;8.80;1.38;;;;;;;25.96;41.22;101703.34;5030622;28;20462;-57
2022/10/17 11:21:43;;;;;;;6.80;1.40;;;;;;;25.96;41.33;101702.47;5012392;28;20057;-57
2022/10/17 11:24:25;;;;;;;5.63;1.38;;;;;;;25.94;41.29;101700.69;5009177;28;20038;-57
2022/10/17 11:27:01;;;;;;;3.10;1.00;;;;;;;25.99;41.04;101699.84;5013589;28;20575;-57
2022/10/17 11:29:33;;;;;;;4.60;1.30;;;;;;;25.99;41.08;101698.13;5013772;28;20030;-57
2022/10/17 11:32:07;;;;;;;4.20;1.10;;;;;;;25.98;41.17;101700.75;5012405;28;20096;-58
2022/10/17 11:34:41;;;;;;;3.10;0.95;;;;;;;26.00;41.30;101710.41;5013655;28;20104;-57
2022/10/17 11:37:15;;;;;;;2.58;0.73;;;;;;;25.97;41.18;101709.50;4996159;28;20050;-57
2022/10/17 11:39:49;;;;;;;6.60;1.27;;;;;;;26.01;41.25;101721.81;5013819;28;20478;-57
2022/10/17 11:42:51;;;;;;;2.38;0.80;;;;;;;26.00;41.05;101722.66;5013630;28;20038;-57
2022/10/17 11:45:22;;;;;;;4.85;0.90;;;;;;;26.02;41.00;101727.09;5013508;28;20396;-58
2022/10/17 11:47:54;;;;;;;2.97;1.02;;;;;;;26.01;41.20;101732.31;5012009;28;20057;-57
2022/10/17 11:50:26;;;;;;;2.70;0.98;;;;;;;26.03;41.24;101721.00;5012300;28;20463;-58
2022/10/17 11:52:56;;;;;;;3.70;1.02;;;;;;;26.05;41.17;101723.63;5013390;28;20494;-57